Time;durP1;ratioP1;P1;durP2;ratioP2;P2;SDS_P1;SDS_P2;PMS_P1;PMS_P2;Temp;Humidity;BMP_temperature;BMP_pressure;BME280_temperature;BME280_humidity;BME280_pressure;Samples;Min_cycle;Max_cycle;Signal;HPM_P1;HPM_P2
2023/02/21 08:32:36;;;;;;;16.35;3.85;;;;;;;13.30;46.14;96947.91;2088845;28;20557;-64
2023/02/21 08:33:37;;;;;;;16.50;4.53;;;;;;;13.91;45.07;96958.78;2091821;28;20852;-64
2023/02/21 08:34:38;;;;;;;12.48;3.97;;;;;;;14.05;44.79;96955.44;2082656;28;20308;-64
2023/02/21 08:35:40;;;;;;;14.82;4.03;;;;;;;14.22;44.77;96957.16;2088677;28;20207;-64
2023/02/21 08:36:42;;;;;;;11.88;4.10;;;;;;;15.91;41.72;96948.38;2089099;28;20239;-63
2023/02/21 08:37:49;;;;;;;17.63;4.20;;;;;;;15.64;41.83;96951.72;2082204;28;20189;-64
2023/02/21 08:38:50;;;;;;;14.95;4.13;;;;;;;16.05;41.55;96958.06;2082789;28;20201;-64
2023/02/21 08:39:52;;;;;;;24.40;5.35;;;;;;;15.40;42.13;96953.19;2083295;28;20229;-64
2023/02/21 08:40:53;;;;;;;17.70;5.40;;;;;;;16.20;41.33;96955.41;2080522;28;20205;-64
2023/02/21 08:41:57;;;;;;;10.63;4.93;;;;;;;16.33;40.99;96951.91;2081164;28;20216;-64
2023/02/21 08:42:59;;;;;;;18.50;5.65;;;;;;;16.45;40.86;96957.34;2082943;28;20361;-64
2023/02/21 08:44:01;;;;;;;17.85;6.25;;;;;;;15.94;41.29;96953.44;2078399;28;20290;-64
2023/02/21 08:45:02;;;;;;;21.42;5.93;;;;;;;15.41;42.38;96954.88;2071911;28;20229;-64
2023/02/21 08:46:04;;;;;;;22.20;5.53;;;;;;;15.30;42.87;96955.50;2075787;28;20206;-64
2023/02/21 08:47:05;;;;;;;21.50;5.10;;;;;;;16.08;41.99;96960.50;2069856;28;20202;-64
2023/02/21 08:48:07;;;;;;;24.98;4.80;;;;;;;16.01;41.79;96946.03;2068001;28;20202;-64
2023/02/21 08:49:09;;;;;;;27.17;5.55;;;;;;;16.11;42.42;96951.56;2070417;28;20224;-63
2023/02/21 08:50:11;;;;;;;13.60;4.75;;;;;;;16.60;41.31;96952.91;2072176;28;20736;-64
2023/02/21 08:51:13;;;;;;;26.15;5.20;;;;;;;16.79;41.38;96957.81;2071962;28;20332;-64
2023/02/21 08:52:17;;;;;;;15.57;4.50;;;;;;;16.63;41.94;96950.91;2071493;28;20221;-64
2023/02/21 08:53:19;;;;;;;17.13;4.13;;;;;;;16.83;41.47;96954.03;2070947;28;20422;-64
2023/02/21 08:54:20;;;;;;;32.03;5.30;;;;;;;17.99;39.65;96950.78;2072149;28;20461;-64
2023/02/21 08:55:22;;;;;;;13.70;4.23;;;;;;;18.19;39.21;96952.84;2073682;28;20740;-64
2023/02/21 08:56:24;;;;;;;29.47;4.40;;;;;;;18.84;38.72;96942.94;2073062;28;21182;-64
2023/02/21 08:57:26;;;;;;;20.73;4.10;;;;;;;18.85;38.81;96943.78;2073386;28;20424;-64
2023/02/21 08:58:27;;;;;;;31.43;4.23;;;;;;;18.78;38.46;96951.31;2071967;28;20757;-64
2023/02/21 08:59:32;;;;;;;22.33;3.13;;;;;;;19.22;38.66;96962.25;2072023;28;20498;-64
2023/02/21 09:00:33;;;;;;;13.67;3.43;;;;;;;19.77;37.92;96953.72;2074376;28;20470;-64
2023/02/21 09:01:35;;;;;;;15.43;3.87;;;;;;;20.57;36.59;96955.44;2068155;28;20465;-64
2023/02/21 09:02:39;;;;;;;27.70;3.80;;;;;;;19.85;37.14;96952.19;2070832;28;21146;-64
2023/02/21 09:03:40;;;;;;;15.43;4.10;;;;;;;19.51;37.81;96957.41;2071501;28;20423;-64
2023/02/21 09:04:42;;;;;;;21.63;3.63;;;;;;;19.42;37.67;96956.28;2072968;28;20459;-64
2023/02/21 09:05:44;;;;;;;14.03;3.20;;;;;;;19.62;37.71;96959.25;2070819;28;20541;-64
2023/02/21 09:06:45;;;;;;;29.30;3.77;;;;;;;19.39;38.27;96958.34;2071746;28;20937;-64
2023/02/21 09:07:48;;;;;;;23.77;3.40;;;;;;;19.09;38.25;96949.09;2072941;28;20419;-64
2023/02/21 09:08:49;;;;;;;14.33;3.10;;;;;;;19.52;37.83;96956.44;2072035;28;20448;-64
2023/02/21 09:09:51;;;;;;;20.07;3.53;;;;;;;19.32;38.06;96957.13;2070701;28;20471;-64
2023/02/21 09:10:54;;;;;;;19.63;2.97;;;;;;;20.05;37.42;96949.81;2070335;28;20781;-64
2023/02/21 09:11:55;;;;;;;21.37;3.63;;;;;;;21.01;35.71;96961.63;2068302;28;20432;-64
2023/02/21 09:12:58;;;;;;;20.70;3.50;;;;;;;21.02;35.20;96952.66;2068915;28;20439;-64
2023/02/21 09:14:00;;;;;;;13.30;2.70;;;;;;;22.28;33.90;96950.97;2072420;28;20431;-64
2023/02/21 09:15:02;;;;;;;21.23;4.13;;;;;;;22.11;33.73;96946.28;2072373;28;20457;-64
2023/02/21 09:16:03;;;;;;;18.93;4.17;;;;;;;21.36;34.31;96955.19;2069075;28;20478;-64
2023/02/21 09:17:07;;;;;;;37.27;4.00;;;;;;;20.60;35.34;96957.81;2069998;28;20792;-64
2023/02/21 09:18:10;;;;;;;18.80;4.00;;;;;;;20.65;35.27;96945.03;2069944;28;20531;-64
2023/02/21 09:19:12;;;;;;;31.83;3.90;;;;;;;21.04;35.32;96945.44;2070081;28;20486;-64
2023/02/21 09:20:16;;;;;;;12.57;2.90;;;;;;;20.94;35.05;96949.81;2074084;28;20477;-64
2023/02/21 09:21:18;;;;;;;30.57;3.90;;;;;;;21.37;34.13;96937.44;2074225;28;20433;-64
2023/02/21 09:22:19;;;;;;;15.60;3.53;;;;;;;20.72;35.02;96945.41;2072370;28;21084;-64
2023/02/21 09:23:26;;;;;;;15.67;3.10;;;;;;;20.42;35.00;96938.94;2073799;28;20437;-64
2023/02/21 09:24:29;;;;;;;11.93;2.70;;;;;;;20.41;35.34;96947.00;2074043;28;20501;-64
2023/02/21 09:25:30;;;;;;;13.37;3.13;;;;;;;20.30;35.60;96948.72;2072404;28;20464;-64
2023/02/21 09:26:32;;;;;;;15.00;3.40;;;;;;;20.61;35.78;96954.22;2071745;28;20423;-64
2023/02/21 09:27:36;;;;;;;13.80;2.70;;;;;;;20.02;35.89;96953.53;2072111;28;20521;-64
2023/02/21 09:28:42;;;;;;;12.87;2.03;;;;;;;19.99;36.22;96947.63;2071022;28;20476;-64
2023/02/21 09:29:44;;;;;;;7.23;2.50;;;;;;;21.21;34.94;96945.84;2071289;28;20941;-64
2023/02/21 09:30:48;;;;;;;16.80;3.03;;;;;;;20.42;35.89;96951.34;2074427;28;20423;-64
2023/02/21 09:31:52;;;;;;;25.43;4.13;;;;;;;20.25;36.54;96942.06;2073139;28;21459;-64
2023/02/21 09:32:54;;;;;;;16.53;3.60;;;;;;;20.57;36.19;96952.78;2072525;28;20463;-64
2023/02/21 09:33:55;;;;;;;27.83;2.70;;;;;;;20.55;35.88;96960.84;2072013;28;20838;-63
2023/02/21 09:34:57;;;;;;;13.10;2.20;;;;;;;21.60;34.73;96953.25;2073396;28;20430;-64
2023/02/21 09:35:59;;;;;;;5.97;1.97;;;;;;;21.73;34.77;96950.44;2072939;28;20458;-64
2023/02/21 09:37:04;;;;;;;18.87;1.43;;;;;;;21.82;34.56;96952.28;2073000;28;20431;-64
2023/02/21 09:38:07;;;;;;;10.77;1.70;;;;;;;21.17;34.57;96949.72;2071248;28;20427;-64
2023/02/21 09:39:09;;;;;;;6.23;1.83;;;;;;;20.66;35.17;96951.19;2069875;28;20439;-64
2023/02/21 09:40:24;;;;;;;7.10;1.20;;;;;;;21.23;34.75;96949.22;2070782;28;20486;-64
2023/02/21 09:41:26;;;;;;;16.57;1.83;;;;;;;21.02;34.67;96944.69;2071516;28;20423;-64
2023/02/21 09:42:30;;;;;;;7.47;1.63;;;;;;;21.81;33.57;96947.94;2071815;28;20419;-64
2023/02/21 09:43:38;;;;;;;13.63;1.77;;;;;;;22.12;33.87;96940.81;2068032;28;20428;-64
2023/02/21 09:44:40;;;;;;;8.10;1.77;;;;;;;22.02;34.14;96954.06;2066034;28;20917;-64
2023/02/21 09:45:43;;;;;;;5.33;1.13;;;;;;;22.48;33.53;96945.75;2066911;28;20424;-64
2023/02/21 09:46:48;;;;;;;15.07;3.20;;;;;;;22.24;32.90;96941.56;2066462;28;20912;-64
2023/02/21 09:47:55;;;;;;;14.60;2.53;;;;;;;22.55;33.40;96943.38;2067586;28;20462;-59
2023/02/21 09:48:56;;;;;;;12.03;2.40;;;;;;;22.43;33.07;96947.97;2066079;28;20424;-59
2023/02/21 09:50:12;;;;;;;17.07;2.20;;;;;;;22.53;33.02;96943.50;2066069;28;20428;-59
2023/02/21 09:51:15;;;;;;;12.73;2.50;;;;;;;22.81;32.72;96941.03;2065733;28;20428;-59
2023/02/21 09:52:29;;;;;;;10.67;2.33;;;;;;;22.65;32.84;96938.91;2065419;28;20431;-59
2023/02/21 09:53:43;;;;;;;9.03;1.93;;;;;;;23.11;32.87;96944.59;2065662;28;20428;-59
2023/02/21 09:54:50;;;;;;;11.17;1.73;;;;;;;22.01;34.13;96933.75;2065287;28;20502;-59
2023/02/21 09:55:57;;;;;;;11.10;1.90;;;;;;;22.21;34.04;96939.19;2065390;28;20458;-59
2023/02/21 09:57:04;;;;;;;16.10;2.10;;;;;;;22.23;34.87;96937.22;2065245;28;20471;-61
2023/02/21 09:58:14;;;;;;;6.60;1.87;;;;;;;22.77;34.54;96937.81;2064909;28;20903;-61
2023/02/21 09:59:16;;;;;;;11.53;2.20;;;;;;;22.18;33.98;96939.44;2065520;28;20526;-61
2023/02/21 10:00:24;;;;;;;22.60;2.23;;;;;;;21.80;34.67;96944.47;2067709;28;20442;-61
2023/02/21 10:01:34;;;;;;;7.63;1.93;;;;;;;21.81;34.49;96939.97;2066806;28;20432;-61
2023/02/21 10:02:49;;;;;;;9.13;2.23;;;;;;;22.93;32.97;96942.59;2065097;28;20448;-61
2023/02/21 10:04:00;;;;;;;5.43;1.83;;;;;;;23.56;32.71;96941.34;2064627;28;20431;-61
2023/02/21 10:05:25;;;;;;;12.90;2.50;;;;;;;22.98;33.58;96940.38;2064715;28;20767;-61
2023/02/21 10:06:49;;;;;;;3.43;1.67;;;;;;;24.30;31.08;96944.22;2063359;28;20424;-62
2023/02/21 10:08:05;;;;;;;17.13;1.97;;;;;;;23.92;32.02;96943.38;2062027;28;20923;-61
2023/02/21 10:09:26;;;;;;;10.20;1.63;;;;;;;23.61;32.16;96940.91;2064629;28;20460;-61
2023/02/21 10:11:00;;;;;;;10.13;1.70;;;;;;;24.28;31.21;96935.53;2063257;28;20773;-61
2023/02/21 10:12:32;;;;;;;11.57;1.90;;;;;;;23.06;32.29;96939.66;2065606;28;20432;-61
2023/02/21 10:13:51;;;;;;;4.13;1.60;;;;;;;23.78;31.84;96939.31;2067700;28;20428;-61
2023/02/21 10:15:04;;;;;;;4.70;1.70;;;;;;;23.05;32.00;96937.97;2065660;28;20567;-61
2023/02/21 10:16:31;;;;;;;7.73;1.90;;;;;;;23.17;32.01;96935.22;2064889;28;20244;-61
2023/02/21 10:17:51;;;;;;;3.65;1.45;;;;;;;22.77;32.13;96929.81;2065591;28;20640;-62
2023/02/21 10:19:02;;;;;;;4.55;1.92;;;;;;;24.44;30.79;96935.75;2065522;28;20229;-62
2023/02/21 10:20:53;;;;;;;4.20;1.33;;;;;;;22.94;31.79;96938.97;2065025;28;20244;-61
2023/02/21 10:21:57;;;;;;;3.83;1.60;;;;;;;23.34;31.86;96936.31;2047318;28;20212;-61
2023/02/21 10:23:01;;;;;;;7.22;1.83;;;;;;;21.88;33.17;96934.97;2048993;28;20732;-61
2023/02/21 10:24:10;;;;;;;2.92;1.42;;;;;;;22.30;32.79;96930.38;2048396;28;20203;-61
2023/02/21 10:25:30;;;;;;;4.45;1.77;;;;;;;21.72;33.14;96930.97;2047549;28;20199;-61
2023/02/21 10:26:40;;;;;;;2.65;1.40;;;;;;;21.84;33.28;96934.41;2047886;28;20203;-61
2023/02/21 10:27:42;;;;;;;4.70;1.33;;;;;;;22.58;32.50;96930.63;2048482;28;20211;-61
2023/02/21 10:28:43;;;;;;;4.60;2.00;;;;;;;23.24;31.33;96928.34;2042780;29;20622;-61
2023/02/21 10:29:59;;;;;;;5.78;1.58;;;;;;;23.72;31.61;96937.22;2041700;28;20248;-61
2023/02/21 10:31:07;;;;;;;4.03;2.30;;;;;;;24.17;31.10;96938.41;2047989;28;20202;-62
2023/02/21 10:32:09;;;;;;;2.97;1.55;;;;;;;23.24;31.16;96928.34;2048057;28;20307;-61
2023/02/21 10:33:10;;;;;;;2.60;1.20;;;;;;;24.61;29.89;96933.25;2048847;28;20275;-62
2023/02/21 10:34:42;;;;;;;6.60;1.83;;;;;;;25.07;29.47;96930.59;2047269;28;20760;-61
2023/02/21 10:35:47;;;;;;;4.13;1.20;;;;;;;24.22;30.00;96920.94;2049628;28;20204;-61
2023/02/21 10:36:49;;;;;;;3.20;1.13;;;;;;;23.66;30.53;96929.84;2048232;28;20231;-61
2023/02/21 10:37:55;;;;;;;5.82;1.48;;;;;;;22.56;31.80;96927.25;2048832;28;20222;-61
2023/02/21 10:39:09;;;;;;;2.85;1.50;;;;;;;22.38;32.37;96934.22;2048570;28;20535;-61
2023/02/21 10:40:34;;;;;;;2.60;1.40;;;;;;;23.64;30.98;96924.63;2048594;28;20203;-62
2023/02/21 10:41:40;;;;;;;2.65;1.65;;;;;;;24.32;30.39;96928.09;2040874;29;20215;-61
2023/02/21 10:42:50;;;;;;;11.27;1.50;;;;;;;24.89;29.77;96925.25;2039093;29;20684;-61
2023/02/21 10:43:58;;;;;;;2.65;1.15;;;;;;;23.30;30.18;96920.63;2048315;28;20204;-61
2023/02/21 10:45:02;;;;;;;1.30;1.02;;;;;;;23.74;30.74;96909.44;2048000;28;20303;-61
2023/02/21 10:46:24;;;;;;;2.72;1.20;;;;;;;24.84;29.82;96922.19;2048695;28;20237;-61
2023/02/21 10:47:49;;;;;;;4.00;1.00;;;;;;;25.22;29.80;96929.03;2048558;28;20573;-61
2023/02/21 10:48:54;;;;;;;2.95;1.25;;;;;;;25.38;29.19;96923.03;2047899;28;20199;-61
2023/02/21 10:50:03;;;;;;;9.90;1.25;;;;;;;25.07;29.17;96927.91;2047107;28;20698;-61
2023/02/21 10:51:12;;;;;;;4.10;1.08;;;;;;;24.00;30.76;96922.19;2046931;28;20214;-67
2023/02/21 10:52:16;;;;;;;3.75;1.00;;;;;;;25.29;29.34;96923.91;2048045;28;20628;-66
2023/02/21 10:53:29;;;;;;;1.42;1.00;;;;;;;25.02;29.33;96923.03;2054469;28;20221;-66
2023/02/21 10:54:30;;;;;;;2.95;1.35;;;;;;;25.56;29.27;96925.69;2061488;28;20241;-66
2023/02/21 10:55:35;;;;;;;2.55;1.05;;;;;;;25.27;29.15;96917.91;2063981;28;20211;-66
2023/02/21 10:56:37;;;;;;;2.47;1.20;;;;;;;24.94;28.92;96920.28;2065771;28;20260;-66
2023/02/21 10:57:42;;;;;;;3.08;1.00;;;;;;;24.52;30.24;96915.47;2063081;28;20240;-66
2023/02/21 10:58:51;;;;;;;3.42;1.10;;;;;;;22.62;31.68;96909.91;2063311;28;20205;-66
2023/02/21 10:59:52;;;;;;;3.88;1.48;;;;;;;23.39;31.28;96910.09;2065508;28;20260;-66
2023/02/21 11:00:54;;;;;;;3.00;1.15;;;;;;;24.04;30.46;96910.22;2067289;28;20543;-66
2023/02/21 11:01:57;;;;;;;5.30;1.27;;;;;;;23.35;31.18;96912.22;2064701;28;20203;-66
2023/02/21 11:03:06;;;;;;;3.85;1.20;;;;;;;23.87;30.86;96916.28;2065804;28;20666;-66
2023/02/21 11:04:13;;;;;;;5.75;1.85;;;;;;;24.70;30.03;96919.03;2063980;28;20198;-66
2023/02/21 11:05:18;;;;;;;4.97;1.48;;;;;;;24.17;30.94;96907.22;2068808;28;20653;-66
2023/02/21 11:06:41;;;;;;;8.05;1.63;;;;;;;23.20;31.39;96914.47;2063354;28;20535;-66
2023/02/21 11:08:02;;;;;;;7.43;1.25;;;;;;;22.68;31.92;96901.38;2064701;28;20206;-66
2023/02/21 11:09:23;;;;;;;17.02;1.85;;;;;;;21.61;33.27;96908.00;2063891;28;20206;-66
2023/02/21 11:10:39;;;;;;;2.92;1.20;;;;;;;22.93;32.34;96905.34;2065655;28;20211;-66
2023/02/21 11:11:41;;;;;;;5.65;1.30;;;;;;;23.91;30.90;96905.22;2065312;28;20673;-66
2023/02/21 11:12:42;;;;;;;7.57;1.15;;;;;;;24.21;30.92;96905.09;2064419;28;20206;-66
2023/02/21 11:13:44;;;;;;;11.82;2.47;;;;;;;24.22;29.96;96898.78;2066781;28;20338;-66
2023/02/21 11:14:51;;;;;;;2.85;1.10;;;;;;;24.10;30.24;96890.16;2064967;28;20226;-66
2023/02/21 11:16:21;;;;;;;5.15;1.13;;;;;;;24.71;30.13;96895.84;2068883;28;20221;-66
2023/02/21 11:17:32;;;;;;;3.78;1.17;;;;;;;23.70;30.72;96896.56;2065509;28;20244;-66
2023/02/21 11:18:33;;;;;;;3.00;1.10;;;;;;;23.75;30.84;96891.63;2066821;28;20209;-66
2023/02/21 11:20:06;;;;;;;11.38;1.33;;;;;;;23.88;30.70;96892.13;2065041;28;20222;-66
2023/02/21 11:21:14;;;;;;;2.45;0.80;;;;;;;24.36;30.79;96889.44;2065257;28;20293;-64
2023/02/21 11:22:33;;;;;;;2.05;0.80;;;;;;;25.00;30.19;96889.44;2066703;28;20260;-64
2023/02/21 11:23:35;;;;;;;10.68;1.40;;;;;;;25.42;29.46;96883.50;2063246;28;20195;-65
2023/02/21 11:24:51;;;;;;;5.28;1.02;;;;;;;25.74;29.37;96887.38;2066010;28;20225;-64
2023/02/21 11:26:08;;;;;;;12.57;1.23;;;;;;;26.18;29.43;96881.94;2064956;28;20202;-64
2023/02/21 11:27:12;;;;;;;6.10;1.35;;;;;;;26.56;28.20;96879.72;2060918;28;20203;-64
2023/02/21 11:28:13;;;;;;;7.95;1.10;;;;;;;26.41;28.73;96881.34;2068250;28;20209;-64
2023/02/21 11:29:22;;;;;;;7.22;1.08;;;;;;;26.56;28.92;96879.72;2063319;28;20253;-64
2023/02/21 11:30:24;;;;;;;8.25;1.10;;;;;;;26.12;28.56;96871.00;2063336;28;20198;-64
2023/02/21 11:31:30;;;;;;;1.95;0.80;;;;;;;26.17;29.22;96872.22;2067940;28;20213;-64
2023/02/21 11:32:37;;;;;;;8.10;1.10;;;;;;;26.43;28.94;96876.66;2065193;28;20320;-64
2023/02/21 11:33:51;;;;;;;4.95;1.00;;;;;;;26.73;28.81;96866.38;2063308;28;20261;-64
2023/02/21 11:35:01;;;;;;;4.43;0.90;;;;;;;26.62;28.61;96864.81;2063684;28;20696;-65
2023/02/21 11:36:13;;;;;;;3.50;0.90;;;;;;;26.64;28.41;96864.63;2064877;28;20282;-64
2023/02/21 11:37:16;;;;;;;4.05;0.88;;;;;;;26.80;28.38;96870.06;2064754;28;20202;-64
2023/02/21 11:38:40;;;;;;;5.80;1.10;;;;;;;26.31;28.25;96864.56;2066118;28;20681;-64
2023/02/21 11:39:50;;;;;;;2.67;1.02;;;;;;;25.00;29.39;96860.06;2063802;28;20226;-64
2023/02/21 11:40:51;;;;;;;1.33;0.88;;;;;;;24.08;30.10;96855.59;2061165;28;20201;-64
2023/02/21 11:41:55;;;;;;;7.15;1.02;;;;;;;24.32;30.07;96859.56;2062821;28;20198;-64
2023/02/21 11:43:19;;;;;;;8.35;1.10;;;;;;;25.53;29.20;96848.44;2064097;28;20554;-64
2023/02/21 11:44:36;;;;;;;4.57;1.20;;;;;;;25.72;28.88;96850.06;2062866;28;20556;-64
2023/02/21 11:45:46;;;;;;;6.10;1.00;;;;;;;24.84;29.74;96847.44;2065886;28;20198;-64
2023/02/21 11:46:53;;;;;;;1.90;0.90;;;;;;;22.72;32.11;96844.22;2061220;28;20203;-64
2023/02/21 11:48:01;;;;;;;3.90;1.48;;;;;;;22.59;32.34;96843.66;2066362;28;20321;-64
2023/02/21 11:49:24;;;;;;;2.75;1.00;;;;;;;22.73;31.87;96845.91;2059921;28;20336;-64
2023/02/21 11:50:32;;;;;;;2.00;0.93;;;;;;;22.37;32.30;96840.28;2063782;28;20198;-63
2023/02/21 11:51:43;;;;;;;10.60;1.30;;;;;;;23.23;31.68;96844.91;2064449;28;20248;-63
2023/02/21 11:52:59;;;;;;;4.25;1.20;;;;;;;24.11;31.30;96844.66;2062826;28;20281;-64
2023/02/21 11:54:03;;;;;;;9.43;1.30;;;;;;;24.82;30.00;96842.22;2065926;28;20249;-64
2023/02/21 11:55:16;;;;;;;4.45;1.08;;;;;;;24.96;29.60;96835.50;2065411;28;20206;-64
2023/02/21 11:56:39;;;;;;;1.95;1.00;;;;;;;23.45;30.42;96846.44;2059446;28;20296;-64
2023/02/21 11:58:08;;;;;;;3.85;0.95;;;;;;;22.16;32.46;96830.56;2067486;28;20605;-63
2023/02/21 11:59:22;;;;;;;5.50;0.80;;;;;;;21.48;33.36;96831.13;2063389;28;20204;-64
2023/02/21 12:00:36;;;;;;;9.52;1.77;;;;;;;22.56;33.28;96828.81;2064946;28;20197;-64
2023/02/21 12:02:11;;;;;;;16.60;1.50;;;;;;;24.84;31.36;96829.56;2068346;28;20332;-64
2023/02/21 12:03:47;;;;;;;2.38;0.90;;;;;;;25.48;30.39;96817.88;2067428;28;20198;-64
2023/02/21 12:04:53;;;;;;;4.65;0.80;;;;;;;25.66;28.92;96825.81;2065703;28;20706;-64
2023/02/21 12:06:17;;;;;;;4.47;1.00;;;;;;;25.51;29.35;96822.88;2065870;28;20194;-64
2023/02/21 12:07:56;;;;;;;3.28;1.00;;;;;;;23.10;32.15;96817.72;2069230;28;20209;-64
2023/02/21 12:09:23;;;;;;;4.68;0.88;;;;;;;24.78;31.34;96816.81;2064617;28;20290;-64
2023/02/21 12:10:31;;;;;;;5.30;1.10;;;;;;;25.56;30.25;96809.88;2065690;28;20549;-64
2023/02/21 12:12:11;;;;;;;3.20;1.00;;;;;;;26.12;29.33;96814.81;2063636;28;20198;-64
2023/02/21 12:13:37;;;;;;;4.57;0.95;;;;;;;26.50;29.21;96813.44;2059673;28;20213;-64
2023/02/21 12:14:47;;;;;;;2.00;0.80;;;;;;;26.36;28.73;96806.88;2060199;28;20226;-64
2023/02/21 12:16:02;;;;;;;2.00;0.80;;;;;;;23.25;30.64;96802.16;2064414;28;20210;-64
2023/02/21 12:17:28;;;;;;;1.42;0.73;;;;;;;23.83;30.98;96801.09;2063010;28;20268;-63
2023/02/21 12:18:48;;;;;;;8.90;1.10;;;;;;;22.84;31.25;96799.66;2066851;28;20197;-64
2023/02/21 12:20:37;;;;;;;5.22;0.80;;;;;;;23.79;30.62;96797.06;2063462;28;20225;-64
2023/02/21 12:21:44;;;;;;;4.93;0.90;;;;;;;23.54;30.66;96795.91;2056978;28;20275;-64
2023/02/21 12:23:12;;;;;;;3.25;0.85;;;;;;;24.35;30.51;96789.03;2057736;28;20632;-64
2023/02/21 12:24:35;;;;;;;4.32;1.02;;;;;;;22.87;31.43;96783.44;2060573;28;20281;-64
2023/02/21 12:25:58;;;;;;;9.02;1.10;;;;;;;22.41;32.47;96787.63;2064955;28;20241;-64
2023/02/21 12:27:14;;;;;;;2.80;1.10;;;;;;;23.48;31.90;96784.00;2066998;28;20198;-64
2023/02/21 12:29:13;;;;;;;5.15;0.93;;;;;;;24.67;30.54;96779.69;2065133;28;20214;-64
2023/02/21 12:30:44;;;;;;;12.57;1.00;;;;;;;23.47;31.40;96771.66;2048241;28;20836;-64
2023/02/21 12:32:23;;;;;;;11.88;0.90;;;;;;;24.46;30.55;96768.28;2047601;28;20305;-64
2023/02/21 12:33:47;;;;;;;8.23;1.08;;;;;;;24.96;29.97;96771.41;2041536;29;20348;-64
2023/02/21 12:35:07;;;;;;;11.88;0.90;;;;;;;22.70;31.47;96765.50;2045125;28;20231;-64
2023/02/21 12:36:39;;;;;;;7.65;1.00;;;;;;;22.96;31.23;96760.44;2051277;28;20208;-64
2023/02/21 12:38:05;;;;;;;2.92;0.90;;;;;;;23.79;31.00;96759.72;2046044;28;20682;-64
2023/02/21 12:39:31;;;;;;;2.60;1.10;;;;;;;21.19;32.80;96751.28;2044945;28;20204;-63
2023/02/21 12:41:10;;;;;;;2.90;0.85;;;;;;;22.67;31.67;96754.16;2046888;28;20231;-64
2023/02/21 12:42:27;;;;;;;5.13;0.80;;;;;;;23.27;31.12;96752.25;2045956;28;20218;-64
2023/02/21 12:43:46;;;;;;;1.10;0.70;;;;;;;20.96;32.81;96753.28;2046889;28;20198;-64
2023/02/21 12:44:53;;;;;;;3.55;0.90;;;;;;;20.60;33.50;96750.09;2043974;28;20358;-64
2023/02/21 12:46:11;;;;;;;2.58;0.80;;;;;;;21.41;33.23;96746.78;2047500;28;20196;-64
2023/02/21 12:47:22;;;;;;;1.92;0.90;;;;;;;22.02;32.94;96744.03;2048398;28;20203;-64
2023/02/21 12:48:32;;;;;;;6.63;0.98;;;;;;;23.36;31.43;96747.88;2048718;28;20254;-64
2023/02/21 12:49:46;;;;;;;3.17;0.90;;;;;;;23.92;30.60;96744.25;2046534;28;20537;-64
2023/02/21 12:50:59;;;;;;;9.27;1.02;;;;;;;23.90;30.60;96746.19;2043675;29;20209;-64
2023/02/21 12:52:35;;;;;;;3.70;0.93;;;;;;;21.84;31.49;96733.25;2048366;28;20207;-64
2023/02/21 12:53:44;;;;;;;2.10;0.90;;;;;;;22.46;31.55;96729.53;2046616;28;20243;-64
2023/02/21 12:54:57;;;;;;;1.70;0.70;;;;;;;21.30;32.40;96732.63;2048058;28;20231;-64
2023/02/21 12:56:12;;;;;;;2.10;0.80;;;;;;;21.90;32.10;96720.38;2047981;28;20196;-66
2023/02/21 12:57:19;;;;;;;3.75;0.90;;;;;;;20.76;33.30;96734.59;2038747;29;20200;-66
2023/02/21 12:58:32;;;;;;;4.22;0.90;;;;;;;21.14;33.12;96727.81;2036699;29;20201;-65
2023/02/21 13:00:21;;;;;;;2.05;0.90;;;;;;;21.60;32.54;96722.97;2044907;28;20608;-65
2023/02/21 13:01:31;;;;;;;3.75;0.70;;;;;;;21.12;32.69;96718.31;2032408;29;20215;-65
2023/02/21 13:02:49;;;;;;;2.10;0.90;;;;;;;20.99;32.83;96703.44;2063895;28;20203;-65
2023/02/21 13:04:14;;;;;;;2.20;0.80;;;;;;;21.50;32.09;96717.59;2065386;28;20286;-66
2023/02/21 13:05:20;;;;;;;1.55;0.77;;;;;;;21.40;33.01;96706.09;2065721;28;20218;-66
2023/02/21 13:06:56;;;;;;;2.65;0.80;;;;;;;21.54;32.37;96712.88;2065592;28;20197;-66
2023/02/21 13:08:04;;;;;;;2.17;0.82;;;;;;;21.73;32.41;96704.13;2061472;28;20230;-66
2023/02/21 13:09:05;;;;;;;4.38;1.00;;;;;;;22.13;31.58;96705.88;2062634;28;20201;-66
2023/02/21 13:10:23;;;;;;;2.90;0.77;;;;;;;22.46;31.52;96705.59;2065180;28;20221;-66
2023/02/21 13:11:53;;;;;;;2.22;0.80;;;;;;;22.60;31.00;96707.84;2069735;28;20653;-66
2023/02/21 13:13:14;;;;;;;1.85;0.60;;;;;;;22.10;32.22;96699.97;2065039;28;20194;-66
2023/02/21 13:14:22;;;;;;;5.28;1.00;;;;;;;22.37;31.75;96701.13;2064611;28;20430;-66
2023/02/21 13:15:29;;;;;;;3.13;1.00;;;;;;;21.15;32.58;96702.09;2065277;28;20286;-66
2023/02/21 13:16:30;;;;;;;2.65;0.80;;;;;;;21.48;32.04;96694.81;2064086;28;20226;-65
2023/02/21 13:17:32;;;;;;;1.30;0.73;;;;;;;21.06;33.02;96695.78;2065858;28;20245;-65
2023/02/21 13:18:38;;;;;;;4.43;0.90;;;;;;;21.13;32.88;96693.44;2064415;28;20210;-66
2023/02/21 13:19:53;;;;;;;3.70;0.93;;;;;;;20.96;32.61;96682.47;2067875;28;20240;-65
2023/02/21 13:21:29;;;;;;;1.45;0.70;;;;;;;21.07;32.58;96696.63;2066118;28;20233;-66
2023/02/21 13:24:52;;;;;;;4.20;0.90;;;;;;;21.47;32.20;96683.34;2041611;28;20220;-65
2023/02/21 13:26:25;;;;;;;1.30;0.70;;;;;;;21.26;31.95;96685.25;2066150;28;20618;-65
2023/02/21 13:27:38;;;;;;;3.15;0.95;;;;;;;21.49;32.00;96681.38;2065817;28;20198;-65
2023/02/21 13:28:43;;;;;;;1.10;0.60;;;;;;;22.57;31.38;96686.81;2066429;28;20206;-65
2023/02/21 13:29:44;;;;;;;2.35;0.68;;;;;;;23.28;30.41;96685.50;2064459;28;20242;-66
2023/02/21 13:30:58;;;;;;;1.30;0.70;;;;;;;22.32;30.84;96670.44;2066275;28;20225;-66
2023/02/21 13:32:06;;;;;;;1.80;0.98;;;;;;;20.94;32.23;96681.75;2065815;28;20230;-66
2023/02/21 13:33:42;;;;;;;3.30;0.75;;;;;;;20.53;33.05;96671.03;2065884;28;20198;-65
2023/02/21 13:35:02;;;;;;;8.23;1.02;;;;;;;20.63;32.75;96676.41;2064543;28;20261;-66
2023/02/21 13:36:23;;;;;;;1.42;0.60;;;;;;;19.72;34.17;96662.69;2065996;28;20202;-65
2023/02/21 13:37:28;;;;;;;6.22;0.90;;;;;;;19.88;34.17;96668.47;2065250;28;20203;-65
2023/02/21 13:38:31;;;;;;;1.40;0.70;;;;;;;20.17;34.43;96669.66;2066613;28;20195;-64
2023/02/21 13:39:37;;;;;;;2.95;0.70;;;;;;;19.31;34.37;96662.44;2065869;28;20233;-63
2023/02/21 13:41:05;;;;;;;1.70;0.80;;;;;;;20.18;34.25;96663.38;2067237;28;20528;-63
2023/02/21 13:42:19;;;;;;;12.15;0.80;;;;;;;21.27;32.95;96663.00;2063677;28;20889;-58
2023/02/21 13:43:28;;;;;;;9.02;0.70;;;;;;;21.26;33.08;96658.69;2064377;28;20538;-59
2023/02/21 13:44:34;;;;;;;1.17;0.60;;;;;;;21.83;31.64;96651.84;2064937;28;20229;-59
2023/02/21 13:45:35;;;;;;;2.97;0.80;;;;;;;22.53;31.27;96652.69;2066191;28;20581;-59
2023/02/21 13:46:37;;;;;;;1.42;0.80;;;;;;;21.93;31.85;96648.31;2066186;28;20658;-59
2023/02/21 13:47:59;;;;;;;2.25;0.85;;;;;;;22.57;31.29;96644.25;2063787;28;20198;-59
2023/02/21 13:49:37;;;;;;;5.05;1.10;;;;;;;23.67;30.25;96651.63;2060633;28;20577;-58
2023/02/21 13:50:45;;;;;;;3.25;0.88;;;;;;;23.02;30.35;96642.72;2063945;28;20194;-59
2023/02/21 13:51:49;;;;;;;1.20;0.70;;;;;;;22.21;31.56;96644.00;2064121;28;20199;-58
2023/02/21 13:53:01;;;;;;;4.50;1.02;;;;;;;21.57;32.39;96645.38;2065890;28;20586;-59
2023/02/21 13:54:11;;;;;;;2.47;0.80;;;;;;;20.48;33.43;96627.28;2064693;28;20234;-59
2023/02/21 13:55:19;;;;;;;3.38;0.85;;;;;;;21.03;33.25;96633.16;2065892;28;20214;-59
2023/02/21 13:56:40;;;;;;;3.58;0.80;;;;;;;20.98;32.69;96638.03;2067134;28;20198;-59
2023/02/21 13:58:03;;;;;;;2.78;0.75;;;;;;;21.37;32.06;96632.03;2064496;28;20252;-59
2023/02/21 13:59:31;;;;;;;2.65;0.70;;;;;;;20.88;32.38;96627.38;2058675;28;20206;-59
2023/02/21 14:00:33;;;;;;;1.40;0.70;;;;;;;20.80;32.96;96634.34;2065444;28;20334;-59
2023/02/21 14:01:41;;;;;;;4.35;0.70;;;;;;;20.84;32.78;96627.78;2065628;28;20194;-59
2023/02/21 14:02:53;;;;;;;3.42;0.73;;;;;;;19.89;34.11;96627.72;2065834;28;20198;-59
2023/02/21 14:03:57;;;;;;;3.20;0.80;;;;;;;20.58;33.22;96628.19;2063418;28;20203;-59
2023/02/21 14:05:03;;;;;;;3.35;0.80;;;;;;;20.71;33.37;96622.72;2067768;28;20234;-58
2023/02/21 14:06:07;;;;;;;2.08;0.60;;;;;;;20.46;33.50;96626.59;2066223;28;20202;-59
2023/02/21 14:07:09;;;;;;;3.20;0.80;;;;;;;20.06;33.96;96629.00;2067154;28;20202;-58
2023/02/21 14:08:22;;;;;;;1.73;0.70;;;;;;;20.67;33.33;96626.56;2069280;28;20199;-59
2023/02/21 14:09:24;;;;;;;1.58;0.85;;;;;;;20.74;33.45;96627.75;2066037;28;20233;-58